Observations for BIRMINGHAM AIRPORT, United Kingdom (EGBB)

EGBB 242020Z 23009KT 200V270 9999 -RA SCT010 BKN020 BKN032 12/11 Q1005  
EGBB 241950Z 23011KT 200V270 9999 6000SW -DZ BKN009 BKN014 12/11 Q1005  
EGBB 241920Z 22010KT 200V260 9999 BKN010 OVC015 12/11 Q1005 
EGBB 241850Z 22010KT 190V250 9999 -RA BKN011 OVC016 13/11 Q1005 
EGBB 241820Z 21011KT 180V250 9999 -RA BKN010 OVC014 13/12 Q1005 
EGBB 241750Z 21010KT 180V240 9999 6000NW -RA BKN012 OVC018 13/12 Q1005  
EGBB 241720Z 19011KT 9999 SCT009 BKN010 13/12 Q1005 
EGBB 241650Z 19010KT 160V230 9999 BKN009 13/12 Q1006
EGBB 241620Z 21008KT 170V240 9999 SCT006 BKN010 13/12 Q1007 
EGBB 241550Z 18006KT 150V220 9999 -RA BKN009 12/12 Q1007
EGBB 241520Z 16006KT 7000 -RA BKN007 OVC010 11/11 Q1008 RERA
EGBB 241450Z 16006KT 4800 RA BKN011 OVC015 11/11 Q1009  
EGBB 241420Z 15006KT 4800 RA FEW007 OVC015 10/10 Q1009  
EGBB 241350Z 15006KT 6000 -RA SCT007 BKN012 10/10 Q1010 
EGBB 241320Z 17005KT 9999 -RA FEW010 BKN024 10/09 Q1011 RERA REDZ   
EGBB 241250Z 18006KT 160V230 7000 RADZ BKN008 10/10 Q1011   
EGBB 241220Z 18007KT 150V220 6000 -RA BKN007 11/10 Q1012
EGBB 241150Z 20006KT 160V260 5000 -RA BR SCT008 BKN010 11/10 Q1013  
EGBB 241120Z 23006KT 190V270 9999 -RA BKN014 BKN020 11/09 Q1013 
EGBB 241050Z 22007KT 190V250 9999 -RA BKN013 11/09 Q1013
EGBB 241020Z 24007KT 190V270 9999 -RA BKN013 11/09 Q1013
EGBB 240950Z 22007KT 180V260 9999 -RA BKN013 11/08 Q1014
EGBB 240920Z 22006KT 170V250 9999 -DZ SCT017 10/08 Q1014
EGBB 240850Z 24005KT 190V280 9999 -DZ SCT014 10/08 Q1014
EGBB 240820Z 23006KT 190V260 9999 -RA FEW018 10/08 Q1014
EGBB 240750Z 24007KT 180V270 9999 -DZ NSC 10/07 Q1014   
EGBB 240720Z 24006KT 200V270 9999 FEW048 10/06 Q1014
EGBB 240650Z 25008KT 220V290 9999 FEW048 10/05 Q1014
EGBB 240620Z 25007KT 210V280 CAVOK 10/04 Q1014  
EGBB 240550Z 25008KT 210V280 CAVOK 10/05 Q1013  
EGBB 240520Z 26007KT CAVOK 10/05 Q1013  
EGBB 240450Z 27006KT CAVOK 10/06 Q1013  
EGBB 240420Z 27007KT CAVOK 10/06 Q1013  
EGBB 240350Z 26006KT 220V290 9999 FEW012 10/07 Q1013
EGBB 240320Z 25006KT 210V270 9999 SCT014 11/07 Q1013
EGBB 240250Z 26004KT 230V300 9999 SCT012 11/09 Q1013
EGBB 240220Z 26005KT 210V310 9999 SCT012 11/09 Q1013
EGBB 240150Z 26007KT 220V290 9999 OVC012 11/09 Q1013
EGBB 240120Z 23004KT 200V270 9999 OVC013 11/09 Q1012
EGBB 240050Z 21004KT 160V270 9999 OVC014 11/09 Q1013
EGBB 240020Z 21006KT 170V250 9999 OVC014 11/09 Q1013
EGBB 232350Z 22008KT 190V250 9999 OVC014 11/09 Q1013
EGBB 232320Z 23007KT 190V270 9999 BKN014 OVC018 11/08 Q1013 
EGBB 232250Z 23009KT 190V260 9999 OVC015 11/08 Q1013
EGBB 232220Z 24006KT 190V300 9999 OVC015 11/08 Q1013
EGBB 232150Z 24009KT 200V270 9999 BKN017 11/08 Q1013
EGBB 232120Z 23010KT 200V260 CAVOK 11/08 Q1013  
EGBB 232050Z 22009KT 180V270 9999 BKN018 11/08 Q1013
EGBB 232020Z 21009KT 180V250 9999 BKN020 11/07 Q1013
EGBB 231950Z 21008KT 9999 BKN023 11/07 Q1013